• Join FlightAware (Why Join?)
  • Login
  • US Flag 
07:59PM EDT


 

Airport Tracker/Info


-or-


 

Live Flight TrackerFlight Track Log ✈ VH-LDK ✈ 28-Apr-2013 ✈ YCFS - YBSU / MCY

Flight Track Log - Related Links

Times and Time Zones

All times are in EDT time to prevent confusion due to time zone crossing. See the VH-LDK flight status page for this flight to view local times or setup timezone preferences in your user account.

Time Position Orientation Groundspeed Altitude Reporting Facility
EDT Latitude Longitude Course Direction KTS MPH feet Rate Location/Type
03:12AM -30.1804 153.0940 North 8,500  Level Aus ATC (Calculated)
03:13AM -30.1804 153.0940 North 8,500  Level Aus ATC (Calculated)
03:14AM -30.1804 153.0940 North 8,500  Level Aus ATC (Calculated)
03:15AM -30.1278 153.0856 North 8,500  Level Aus ATC (Calculated)
03:17AM -30.0803 153.0781 352° North  Level FlightAware Approximate
03:18AM -30.0459 153.0726 352° North  Level FlightAware Approximate
03:18AM -30.0358 153.0710 North 8,500  Level Aus ATC (Calculated)
03:19AM -30.0116 153.0672 352° North  Level FlightAware Approximate
03:20AM -29.9883 153.0635 352° North  Level FlightAware Approximate
03:20AM -29.9668 153.0601 North 8,500  Level Aus ATC (Calculated)
03:22AM -29.9027 153.0499 352° North  Level FlightAware Approximate
03:23AM -29.8683 153.0445 352° North  Level FlightAware Approximate
03:23AM -29.8633 153.0437 North 8,500  Level Aus ATC (Calculated)
03:24AM -29.8340 153.0391 352° North  Level FlightAware Approximate
03:25AM -29.8157 153.0362 352° North  Level FlightAware Approximate
03:25AM -29.8115 153.0356 10° North 8,500  Level Aus ATC (Calculated)
03:26AM -29.7814 153.0308 352° North  Level FlightAware Approximate
03:27AM -29.7641 153.0364 12° North  Level Estimated
03:27AM -29.7597 153.0274 12° North 8,500  Level Aus ATC (Calculated)
03:29AM -29.7100 153.0397 12° North  Level FlightAware Approximate
03:29AM -29.7012 153.0419 12° North 8,500  Level Aus ATC (Calculated)
03:30AM -29.6761 153.0481 12° North  Level FlightAware Approximate
03:30AM -29.6427 153.0564 13° North 8,500  Level Aus ATC (Calculated)
03:31AM -29.6509 153.0544 12° North  Level FlightAware Approximate
03:32AM -29.5901 153.0694 12° North  Level FlightAware Approximate
03:33AM -29.5562 153.0778 12° North  Level FlightAware Approximate
03:34AM -29.5223 153.0861 12° North  Level FlightAware Approximate
03:35AM -29.4884 153.0945 12° North  Level FlightAware Approximate
03:36AM -29.4545 153.1028 12° North  Level FlightAware Approximate
03:37AM -29.4206 153.1112 12° North  Level FlightAware Approximate
03:37AM -29.4598 153.1032 12° North 135 155 8,500  Level Aus ATC (RADAR)
03:37AM -29.4507 153.1056 13° North 134 154 8,500  Level Aus ATC (RADAR)
03:38AM -29.4356 153.1095 13° North 133 153 8,500  Level Aus ATC (RADAR)
03:39AM -29.3812 153.1203 10° North 131 151 8,500  Level Aus ATC (RADAR)
03:40AM -29.3659 153.1232 North 132 152 8,500  Level Aus ATC (RADAR)
03:41AM -29.3213 153.1330 11° North 128 147 8,500  Level Aus ATC (RADAR)
03:43AM -29.2687 153.1450 11° North 130 150 8,600  Climbing Aus ATC (RADAR)
03:43AM -29.2393 153.1534 14° North 132 152 8,600  Level Aus ATC (RADAR)
03:44AM -29.2034 153.1623 12° North 132 152 8,600  Level Aus ATC (RADAR)
03:45AM -29.1828 153.1678 13° North 131 151 8,600  Level Aus ATC (RADAR)
03:46AM -29.1460 153.1765 12° North 135 155 8,600  Level Aus ATC (RADAR)
03:47AM -29.1189 153.1833 12° North 134 154 8,600  Level Aus ATC (RADAR)
03:47AM -29.0916 153.1906 13° North 134 154 8,600  Level Aus ATC (RADAR)
03:48AM -29.0704 153.1957 12° North 134 154 8,600 -120 Level Aus ATC (RADAR)
03:49AM -29.0370 153.2045 13° North 133 153 8,500 -120 Descending Aus ATC (RADAR)
03:49AM -29.0279 153.2063 10° North 132 152 8,500  Level Aus ATC (RADAR)
03:50AM -29.0065 153.2104 10° North 134 154 8,500  Level Aus ATC (RADAR)
03:51AM -28.9733 153.2192 13° North 134 154 8,500  Level Aus ATC (RADAR)
03:51AM -28.9521 153.2250 14° North 134 154 8,500  Level Aus ATC (RADAR)
03:52AM -28.9188 153.2317 10° North 133 153 8,500  Level Aus ATC (RADAR)
03:52AM -28.9095 153.2340 12° North 134 154 8,500  Level Aus ATC (RADAR)
03:53AM -28.8850 153.2390 10° North 135 155 8,500  Level Aus ATC (RADAR)
03:54AM -28.8481 153.2467 10° North 134 154 8,500  Level Aus ATC (RADAR)
03:55AM -28.8236 153.2506 North 133 153 8,500  Level Aus ATC (RADAR)
03:56AM -28.7899 153.2559 North 133 153 8,500  Level Aus ATC (RADAR)
03:56AM -28.7684 153.2520 351° North 132 152 8,500  Level Aus ATC (RADAR)
03:57AM -28.7259 153.2482 356° North 131 151 8,600 60 Climbing Aus ATC (RADAR)
03:58AM -28.7168 153.2467 352° North 131 151 8,600  Level Aus ATC (RADAR)
03:58AM -28.6983 153.2456 357° North 132 152 8,600  Level Aus ATC (RADAR)
03:59AM -28.6588 153.2426 356° North 131 151 8,600  Level Aus ATC (RADAR)
04:00AM -28.6374 153.2407 355° North 131 151 8,600  Level Aus ATC (RADAR)
04:01AM -28.6035 153.2379 356° North 133 153 8,600  Level Aus ATC (RADAR)
04:01AM -28.5821 153.2361 356° North 132 152 8,600  Level Aus ATC (RADAR)
04:03AM -28.5391 153.2319 355° North 133 153 8,600  Level Aus ATC (RADAR)
04:03AM -28.5298 153.2311 356° North 133 153 8,600  Level Aus ATC (RADAR)
04:03AM -28.5082 153.2286 354° North 133 153 8,600  Level Aus ATC (RADAR)
04:04AM -28.4743 153.2251 355° North 132 152 8,600  Level Aus ATC (RADAR)
04:05AM -28.4495 153.2233 356° North 132 152 8,600  Level Aus ATC (RADAR)
04:06AM -28.4186 153.2210 356° North 133 153 8,600  Level Aus ATC (RADAR)
04:06AM -28.3965 153.2194 356° North 135 155 8,600  Level Aus ATC (RADAR)
04:08AM -28.3533 153.2154 355° North 133 153 8,600  Level Aus ATC (RADAR)
04:08AM -28.3441 153.2146 355° North 133 153 8,600  Level Aus ATC (RADAR)
04:08AM -28.3230 153.2125 355° North 129 148 8,600  Level Aus ATC (RADAR)
04:09AM -28.2854 153.2093 356° North 133 153 8,600  Level Aus ATC (RADAR)
04:10AM -28.2641 153.2070 355° North 131 151 8,600  Level Aus ATC (RADAR)
04:11AM -28.2268 153.2040 356° North 135 155 8,600 -120 Level Aus ATC (RADAR)
04:12AM -28.2051 153.2034 359° North 134 154 8,500  Descending Aus ATC (RADAR)
04:13AM -28.1646 153.2001 356° North 135 155 8,600  Climbing Aus ATC (RADAR)
04:13AM -28.1368 153.1978 356° North 134 154 8,600  Level Aus ATC (RADAR)
04:14AM -28.0997 153.1941 355° North 134 154 8,600  Level Aus ATC (RADAR)
04:15AM -28.0780 153.1917 355° North 135 155 8,600  Level Aus ATC (RADAR)
04:16AM -28.0411 153.1880 355° North 133 153 8,600  Level Aus ATC (RADAR)
04:16AM -28.0193 153.1867 357° North 134 154 8,600  Level Aus ATC (RADAR)
04:18AM -27.9763 153.1848 358° North 132 152 8,600  Level Aus ATC (RADAR)
04:18AM -27.9671 153.1840 356° North 132 152 8,600 -120 Level Aus ATC (RADAR)
04:18AM -27.9452 153.1828 357° North 134 154 8,500 -60 Descending Aus ATC (RADAR)
04:20AM -27.9020 153.1802 357° North 132 152 8,500  Level Aus ATC (RADAR)
04:20AM -27.8799 153.1784 356° North 135 155 8,500  Level Aus ATC (RADAR)
04:21AM -27.8549 153.1761 355° North 135 155 8,500 60 Level Aus ATC (RADAR)
04:21AM -27.8330 153.1741 355° North 134 154 8,600 60 Climbing Aus ATC (RADAR)
04:22AM -27.8018 153.1713 355° North 133 153 8,600  Level Aus ATC (RADAR)
04:23AM -27.7797 153.1697 356° North 136 157 8,600  Level Aus ATC (RADAR)
04:23AM -27.7704 153.1690 356° North 135 155 8,600  Level Aus ATC (RADAR)
04:24AM -27.7480 153.1680 358° North 136 157 8,600  Level Aus ATC (RADAR)
04:25AM -27.7123 153.1650 356° North 139 160 8,600  Level Aus ATC (RADAR)
04:25AM -27.6864 153.1628 356° North 139 160 8,600  Level Aus ATC (RADAR)
04:26AM -27.6518 153.1583 353° North 136 157 8,600  Level Aus ATC (RADAR)
04:27AM -27.6295 153.1579 359° North 137 158 8,600 -60 Level Aus ATC (RADAR)
04:28AM -27.5879 153.1558 357° North 139 160 8,500 -60 Descending Aus ATC (RADAR)
04:29AM -27.5563 153.1538 357° North 136 157 8,500  Level Aus ATC (RADAR)
04:30AM -27.5185 153.1517 357° North 135 155 8,500  Level Aus ATC (RADAR)
04:30AM -27.4965 153.1502 357° North 135 155 8,500  Level Aus ATC (RADAR)
04:32AM -27.4495 153.1474 357° North 135 155 8,500  Level Aus ATC (RADAR)
04:32AM -27.4274 153.1459 357° North 136 157 8,500  Level Aus ATC (RADAR)
04:33AM -27.3801 153.1423 356° North 136 157 8,600  Climbing Aus ATC (RADAR)
04:34AM -27.3706 153.1415 355° North 136 157 8,500 -120 Descending Aus ATC (RADAR)
04:34AM -27.3483 153.1393 355° North 137 158 8,500 60 Level Aus ATC (RADAR)
04:35AM -27.3068 153.1358 356° North 138 159 8,600 60 Climbing Aus ATC (RADAR)
04:36AM -27.2845 153.1334 355° North 138 159 8,600  Level Aus ATC (RADAR)
04:37AM -27.2490 153.1299 355° North 140 161 8,600 -60 Level Aus ATC (RADAR)
04:38AM -27.2167 153.1263 354° North 141 162 8,500 -300 Descending Aus ATC (RADAR)
04:38AM -27.1884 153.1250 358° North 152 175 8,200 -480 Descending Aus ATC (RADAR)
04:39AM -27.1772 153.1239 355° North 157 181 8,100 -480 Descending Aus ATC (RADAR)
04:39AM -27.1516 153.1216 355° North 158 182 7,800 -540 Descending Aus ATC (RADAR)
04:40AM -27.1142 153.1192 357° North 162 186 7,400 -540 Descending Aus ATC (RADAR)
04:41AM -27.0881 153.1178 357° North 162 186 7,100 -540 Descending Aus ATC (RADAR)
04:41AM -27.0463 153.1153 357° North 163 188 6,600 -480 Descending Aus ATC (RADAR)
04:42AM -27.0212 153.1136 357° North 156 180 6,400 -420 Descending Aus ATC (RADAR)
04:43AM -26.9758 153.1109 357° North 149 171 5,900 -540 Descending Aus ATC (RADAR)
04:43AM -26.9654 153.1100 355° North 149 171 5,700 -600 Descending Aus ATC (RADAR)
04:44AM -26.9419 153.1095 359° North 145 167 5,400 -540 Descending Aus ATC (RADAR)
04:45AM -26.9051 153.1111 North 145 167 4,900 -600 Descending Aus ATC (RADAR)
04:45AM -26.8810 153.1117 North 147 169 4,500 -780 Descending Aus ATC (RADAR)
04:47AM -26.8351 153.1114 360° North 157 181 3,700 -660 Descending Aus ATC (RADAR)
04:47AM -26.8100 153.1102 358° North 155 178 3,500 -600 Descending Aus ATC (RADAR)
04:48AM -26.7571 153.1056 356° North 153 176 2,600 -780 Descending Aus ATC (RADAR)
04:49AM -26.7468 153.1045 355° North 152 175 2,400 -660 Descending Aus ATC (RADAR)
04:49AM -26.7188 153.1032 358° North 150 173 2,000 -600 Descending Aus ATC (RADAR)
04:50AM -26.6752 153.0992 355° North 143 165 1,400 -420 Descending Aus ATC (RADAR)
04:51AM -26.6551 153.0962 352° North 126 145 1,300 -180 Descending Aus ATC (RADAR)
04:52AM -26.6326 153.0969 North 121 139 1,200 -180 Descending Aus ATC (RADAR)
04:52AM -26.6156 153.1017 14° North 84 97 1,100 -240 Descending Aus ATC (RADAR)
04:54AM -26.5809 153.1064 North 73 84 700 -240 Descending Aus ATC (RADAR)